»·PEaware :: N153CD KSNA-KSNA

N153CD :: KSNA-KSNA

FLIGHT INFORMATION

Flight Status: Arrived
Operator: Privately registered:
United States
More flights under this callsign
Pilot: James B. (31231)
Aircraft: PIPER PA-28R-201 ARROW
(P28R)
More flights by this aircraft type
Origin: KSNA John Wayne-Orange Co
United States
Destination: KSNA John Wayne-Orange Co
United States
More flights between these airports :: More routes between these airports
Route: KSLI
File this flight plan on PilotEdge
Remarks:
Altitude:
(Current/Filed)
3,000ft
Speed:
(Current/Filed)
140kts
Departed: 17-Nov-20 07:27 PM
Arrived: 17-Nov-20 07:48 PM
Distance/Time
Traveled:
0nm/0:21
Distance/Time
To Go:
Arrived

Flight Plot

Page will automatically refresh every two minutes.

Flight plan parsing failed; only flown route is shown


Map Options




Map Legend


Flown Route
Filed Route
Departure Airport
Arrival Airport
Navaid (VOR, NDB)
Fix

Horizontal Profiles

Position Reports

Time Latitude Longitude Heading Altitude Ground
Speed
17-Nov-20 18:55 33.676209 -117.871101 212 58ft 0kts
17-Nov-20 18:56 33.676209 -117.871101 212 58ft 0kts
17-Nov-20 18:57 33.676209 -117.871101 212 58ft 0kts
17-Nov-20 18:58 33.676209 -117.871101 212 58ft 0kts
17-Nov-20 18:59 33.676209 -117.871101 212 58ft 0kts
17-Nov-20 19:00 33.676209 -117.871101 212 58ft 0kts
17-Nov-20 19:01 33.676209 -117.871101 212 58ft 0kts
17-Nov-20 19:02 33.676209 -117.871101 212 58ft 0kts
17-Nov-20 19:03 33.676209 -117.871101 212 58ft 0kts
17-Nov-20 19:04 33.676209 -117.871101 212 58ft 0kts
17-Nov-20 19:05 33.676209 -117.871101 212 58ft 0kts
17-Nov-20 19:06 33.676209 -117.871101 212 58ft 0kts
17-Nov-20 19:07 33.676209 -117.871101 212 58ft 0kts
17-Nov-20 19:08 33.676209 -117.871101 212 58ft 0kts
17-Nov-20 19:09 33.676209 -117.871101 212 58ft 0kts
17-Nov-20 19:10 33.676209 -117.871101 212 58ft 0kts
17-Nov-20 19:11 33.676209 -117.871101 212 58ft 0kts
17-Nov-20 19:12 33.676209 -117.871101 212 58ft 0kts
17-Nov-20 19:13 33.676209 -117.871101 212 58ft 0kts
17-Nov-20 19:14 33.676209 -117.871101 212 58ft 0kts
17-Nov-20 19:15 33.676209 -117.871101 212 58ft 0kts
17-Nov-20 19:16 33.676209 -117.871101 212 58ft 0kts
17-Nov-20 19:17 33.676209 -117.871101 212 58ft 0kts
17-Nov-20 19:18 33.676209 -117.871101 212 58ft 0kts
17-Nov-20 19:19 33.676209 -117.871101 212 58ft 0kts
17-Nov-20 19:20 33.676209 -117.871101 212 58ft 0kts
17-Nov-20 19:21 33.676209 -117.871101 212 58ft 0kts
17-Nov-20 19:22 33.677835 -117.868962 27 58ft 19kts
17-Nov-20 19:23 33.681259 -117.866795 80 58ft 8kts
17-Nov-20 19:24 33.681213 -117.866441 115 58ft 0kts
17-Nov-20 19:25 33.681212 -117.866441 117 58ft 0kts
17-Nov-20 19:26 33.672083 -117.871260 208 265ft 84kts
17-Nov-20 19:27 33.651403 -117.887089 205 1432ft 86kts
17-Nov-20 19:28 33.636707 -117.913717 235 2463ft 104kts
17-Nov-20 19:29 33.619495 -117.948522 229 2821ft 146kts
17-Nov-20 19:30 33.607930 -117.994816 287 2230ft 168kts
17-Nov-20 19:31 33.638163 -118.027685 354 2430ft 129kts
17-Nov-20 19:32 33.674092 -118.029214 15 2922ft 119kts
17-Nov-20 19:33 33.704502 -118.010507 30 3263ft 134kts
17-Nov-20 19:34 33.736672 -117.982964 44 3067ft 142kts
17-Nov-20 19:35 33.766692 -117.951748 44 3068ft 142kts
17-Nov-20 19:36 33.796900 -117.920541 44 3066ft 142kts
17-Nov-20 19:37 33.826913 -117.889430 43 3064ft 142kts
17-Nov-20 19:38 33.846611 -117.850361 70 3063ft 138kts
17-Nov-20 19:39 33.860151 -117.807187 70 3064ft 138kts
17-Nov-20 19:40 33.872830 -117.763604 80 3061ft 138kts
17-Nov-20 19:41 33.844622 -117.761737 230 3065ft 152kts
17-Nov-20 19:42 33.814243 -117.795392 201 2990ft 145kts
17-Nov-20 19:43 33.778801 -117.809953 194 2186ft 134kts
17-Nov-20 19:44 33.745080 -117.825644 203 1447ft 130kts
17-Nov-20 19:45 33.713876 -117.845336 206 797ft 112kts
17-Nov-20 19:46 33.690152 -117.859784 204 281ft 87kts
17-Nov-20 19:47 33.675957 -117.868731 224 58ft 15kts
17-Nov-20 19:48 33.676003 -117.869810 316 58ft 1kts
17-Nov-20 19:49 33.676230 -117.870906 210 58ft 0kts
17-Nov-20 19:50 33.676096 -117.870999 210 58ft 0kts
17-Nov-20 19:51 33.675942 -117.871106 209 58ft 0kts
17-Nov-20 19:52 33.675781 -117.871218 209 58ft 0kts
17-Nov-20 19:56 33.676209 -117.871101 212 58ft 0kts
17-Nov-20 19:57 33.676209 -117.871101 212 58ft 0kts
17-Nov-20 19:58 33.676209 -117.871101 212 58ft 0kts
17-Nov-20 19:59 33.676209 -117.871101 212 58ft 0kts
17-Nov-20 20:00 33.676209 -117.871101 212 58ft 0kts
17-Nov-20 20:01 33.676209 -117.871101 212 58ft 0kts

Navigation Log

Ident Type
Flight plan parsing failed, navigation log unavailable